createdAt,value
2018-03-06T00:00:36.960Z,23.98
2018-03-06T00:03:04.356Z,26.12
2018-03-06T00:05:31.769Z,30.17
2018-03-06T00:07:59.160Z,27.83
2018-03-06T00:10:26.585Z,24.85
2018-03-06T00:12:53.988Z,34.00
2018-03-06T00:15:21.396Z,32.47
2018-03-06T00:17:48.812Z,40.50
2018-03-06T00:20:16.219Z,40.15
2018-03-06T00:22:43.631Z,44.63
2018-03-06T00:25:11.027Z,41.67
2018-03-06T00:27:38.437Z,44.30
2018-03-06T00:30:05.835Z,44.17
2018-03-06T00:32:33.242Z,44.08
2018-03-06T00:35:00.653Z,41.83
2018-03-06T00:37:28.078Z,43.17
2018-03-06T00:39:55.485Z,39.42
2018-03-06T00:42:22.900Z,43.15
2018-03-06T00:44:50.298Z,43.78
2018-03-06T00:47:17.714Z,46.30
2018-03-06T00:49:45.117Z,41.88
2018-03-06T00:52:12.530Z,43.63
2018-03-06T00:54:39.932Z,42.35
2018-03-06T00:57:07.346Z,43.80
2018-03-06T00:59:34.753Z,45.88
2018-03-06T01:02:02.172Z,45.80
2018-03-06T01:04:29.564Z,49.13
2018-03-06T01:06:56.980Z,39.92
2018-03-06T01:09:24.381Z,46.63
2018-03-06T01:11:51.841Z,41.70
2018-03-06T01:14:19.250Z,47.95
2018-03-06T01:16:46.653Z,45.65
2018-03-06T01:19:14.069Z,48.10
2018-03-06T01:21:41.476Z,47.38
2018-03-06T01:24:08.888Z,48.50
2018-03-06T01:26:36.301Z,46.78
2018-03-06T01:29:03.703Z,46.33
2018-03-06T01:31:31.141Z,49.08
2018-03-06T01:33:58.518Z,50.30
2018-03-06T01:36:25.926Z,48.65
2018-03-06T01:38:53.333Z,52.30
2018-03-06T01:41:20.739Z,50.75
2018-03-06T01:43:48.144Z,50.08
2018-03-06T01:46:15.550Z,50.83
2018-03-06T01:48:42.962Z,52.65
2018-03-06T01:51:10.365Z,51.45
2018-03-06T01:53:37.773Z,51.92
2018-03-06T01:56:05.182Z,49.15
2018-03-06T01:58:32.587Z,47.55
2018-03-06T02:00:59.998Z,44.80
2018-03-06T02:03:27.417Z,49.95
2018-03-06T02:05:54.815Z,52.13
2018-03-06T02:08:22.633Z,52.28
2018-03-06T02:10:50.037Z,50.58
2018-03-06T02:13:17.456Z,54.47
2018-03-06T02:15:44.864Z,52.08
2018-03-06T02:18:12.271Z,50.12
2018-03-06T02:20:39.694Z,50.08
2018-03-06T02:23:07.102Z,48.10
2018-03-06T02:25:34.518Z,52.83
2018-03-06T02:28:01.914Z,52.00
2018-03-06T02:30:29.326Z,55.92
2018-03-06T02:32:56.724Z,52.40
2018-03-06T02:35:24.144Z,55.90
2018-03-06T02:37:51.565Z,53.60
2018-03-06T02:40:18.977Z,51.67
2018-03-06T02:42:46.373Z,43.60
2018-03-06T02:45:13.777Z,47.10
2018-03-06T02:47:41.186Z,44.22
2018-03-06T02:50:08.597Z,43.33
2018-03-06T02:52:35.991Z,42.38
2018-03-06T02:55:03.764Z,41.33
2018-03-06T02:57:31.166Z,39.72
2018-03-06T02:59:58.577Z,37.35
2018-03-06T03:02:25.977Z,34.88
2018-03-06T03:04:53.399Z,37.50
2018-03-06T03:07:20.802Z,35.33
2018-03-06T03:09:48.231Z,34.38
2018-03-06T03:12:15.623Z,36.80
2018-03-06T03:14:43.041Z,37.25
2018-03-06T03:17:10.443Z,38.83
2018-03-06T03:19:37.847Z,35.83
2018-03-06T03:22:05.264Z,37.53
2018-03-06T03:24:32.676Z,37.97
2018-03-06T03:27:00.089Z,41.03
2018-03-06T03:29:27.494Z,39.38
2018-03-06T03:31:54.912Z,39.40
2018-03-06T03:34:22.319Z,44.90
2018-03-06T03:36:49.738Z,43.50
2018-03-06T03:39:17.647Z,46.33
2018-03-06T03:41:45.059Z,47.97
2018-03-06T03:44:12.468Z,43.00
2018-03-06T03:46:39.880Z,45.08
2018-03-06T03:49:07.281Z,46.53
2018-03-06T03:51:34.705Z,42.13
2018-03-06T03:54:02.102Z,45.65
2018-03-06T03:56:29.522Z,42.58
2018-03-06T03:58:56.929Z,45.25
2018-03-06T04:01:24.341Z,45.25
2018-03-06T04:03:51.746Z,44.42
2018-03-06T04:06:19.152Z,38.90
2018-03-06T04:08:46.552Z,44.88
2018-03-06T04:11:13.973Z,41.97
2018-03-06T04:13:41.797Z,43.42
2018-03-06T04:16:09.245Z,45.50
2018-03-06T04:18:36.650Z,44.58
2018-03-06T04:21:04.073Z,46.72
2018-03-06T04:23:32.449Z,50.12
2018-03-06T04:25:59.872Z,47.88
2018-03-06T04:28:27.277Z,44.15
2018-03-06T04:30:54.675Z,49.65
2018-03-06T04:33:22.089Z,50.88
2018-03-06T04:35:49.492Z,53.50
2018-03-06T04:38:16.903Z,57.83
2018-03-06T04:40:44.309Z,64.45
2018-03-06T04:43:11.731Z,61.78
2018-03-06T04:45:39.141Z,68.12
2018-03-06T04:48:06.556Z,69.12
2018-03-06T04:50:33.971Z,68.87
2018-03-06T04:53:01.394Z,72.35
2018-03-06T04:55:28.797Z,67.90
2018-03-06T04:57:56.212Z,67.22
2018-03-06T05:00:23.623Z,61.63
2018-03-06T05:02:51.042Z,64.95
2018-03-06T05:05:18.448Z,63.75
2018-03-06T05:07:45.873Z,64.05
2018-03-06T05:10:13.278Z,66.28
2018-03-06T05:12:40.696Z,66.37
2018-03-06T05:15:08.105Z,58.38
2018-03-06T05:17:35.521Z,51.05
2018-03-06T05:20:02.923Z,45.85
2018-03-06T05:22:30.333Z,40.70
2018-03-06T05:24:57.752Z,42.17
2018-03-06T05:27:25.165Z,48.13
2018-03-06T05:29:53.289Z,44.08
2018-03-06T05:32:20.705Z,42.80
2018-03-06T05:34:48.113Z,44.03
2018-03-06T05:37:15.524Z,46.22
2018-03-06T05:39:43.936Z,46.60
2018-03-06T05:42:11.340Z,47.03
2018-03-06T05:44:38.761Z,48.40
2018-03-06T05:47:06.168Z,47.80
2018-03-06T05:49:33.602Z,49.25
2018-03-06T05:52:01.010Z,46.08
2018-03-06T05:54:29.057Z,50.15
2018-03-06T05:56:56.457Z,46.17
2018-03-06T05:59:23.879Z,49.63
2018-03-06T06:01:51.297Z,51.88
2018-03-06T06:04:18.721Z,49.45
2018-03-06T06:06:46.134Z,49.22
2018-03-06T06:09:13.557Z,50.85
2018-03-06T06:11:40.957Z,52.28
2018-03-06T06:14:08.393Z,54.55
2018-03-06T06:16:35.814Z,58.38
2018-03-06T06:19:03.241Z,60.33
2018-03-06T06:21:30.664Z,57.22
2018-03-06T06:23:58.092Z,58.83
2018-03-06T06:26:25.502Z,59.67
2018-03-06T06:28:52.909Z,58.35
2018-03-06T06:31:20.320Z,53.35
2018-03-06T06:33:47.735Z,51.65
2018-03-06T06:36:15.140Z,52.17
2018-03-06T06:38:42.570Z,55.45
2018-03-06T06:41:09.968Z,54.05
2018-03-06T06:43:37.379Z,54.78
2018-03-06T06:46:04.797Z,55.70
2018-03-06T06:48:32.206Z,51.92
2018-03-06T06:50:59.608Z,51.90
2018-03-06T06:53:27.317Z,54.20
2018-03-06T06:55:54.740Z,54.47
2018-03-06T06:58:22.145Z,56.55
2018-03-06T07:00:49.554Z,55.65
2018-03-06T07:03:16.956Z,55.20
2018-03-06T07:05:44.379Z,52.47
2018-03-06T07:08:11.790Z,56.40
2018-03-06T07:10:39.207Z,54.40
2018-03-06T07:13:06.660Z,54.15
2018-03-06T07:15:34.068Z,54.70
2018-03-06T07:18:01.489Z,55.75
2018-03-06T07:20:28.892Z,54.85
2018-03-06T07:22:56.302Z,58.58
2018-03-06T07:25:23.737Z,58.15
2018-03-06T07:27:51.134Z,59.35
2018-03-06T07:30:18.556Z,60.75
2018-03-06T07:32:45.964Z,62.45
2018-03-06T07:35:13.373Z,59.50
2018-03-06T07:37:40.798Z,63.60
2018-03-06T07:40:08.210Z,58.75
2018-03-06T07:42:35.621Z,60.50
2018-03-06T07:45:03.034Z,61.85
2018-03-06T07:47:30.446Z,64.32
2018-03-06T07:49:57.859Z,56.95
2018-03-06T07:52:25.264Z,54.47
2018-03-06T07:54:52.677Z,54.50
2018-03-06T07:57:20.081Z,51.55
2018-03-06T07:59:47.505Z,49.95
2018-03-06T08:02:14.901Z,51.60
2018-03-06T08:04:42.301Z,52.22
2018-03-06T08:07:09.718Z,52.35
2018-03-06T08:09:37.133Z,52.15
2018-03-06T08:12:04.543Z,52.20
2018-03-06T08:14:31.953Z,54.03
2018-03-06T08:16:59.360Z,53.05
2018-03-06T08:19:26.761Z,56.00
2018-03-06T08:21:54.176Z,58.33
2018-03-06T08:24:21.581Z,59.55
2018-03-06T08:26:48.994Z,58.30
2018-03-06T08:29:16.421Z,56.05
2018-03-06T08:31:43.837Z,67.20
2018-03-06T08:34:11.244Z,63.13
2018-03-06T08:36:38.652Z,65.30
2018-03-06T08:39:06.063Z,70.10
2018-03-06T08:41:33.492Z,67.78
2018-03-06T08:44:00.894Z,64.87
2018-03-06T08:46:28.310Z,65.50
2018-03-06T08:48:55.719Z,70.85
2018-03-06T08:51:24.058Z,70.15
2018-03-06T08:53:51.463Z,67.53
2018-03-06T08:56:18.872Z,60.15
2018-03-06T08:58:46.286Z,60.50
2018-03-06T09:01:13.705Z,62.92
2018-03-06T09:03:41.127Z,68.70
2018-03-06T09:06:08.517Z,67.55
2018-03-06T09:08:35.936Z,67.97
2018-03-06T09:11:03.341Z,70.45
2018-03-06T09:13:30.761Z,62.60
2018-03-06T09:15:58.185Z,67.00
2018-03-06T09:18:25.593Z,65.43
2018-03-06T09:20:53.009Z,67.70
2018-03-06T09:23:20.417Z,63.63
2018-03-06T09:25:47.821Z,70.93
2018-03-06T09:28:15.246Z,71.00
2018-03-06T09:30:42.651Z,70.93
2018-03-06T09:33:10.066Z,69.70
2018-03-06T09:35:37.468Z,68.32
2018-03-06T09:38:04.883Z,71.93
2018-03-06T09:40:32.292Z,70.03
2018-03-06T09:42:59.704Z,69.12
2018-03-06T09:45:27.109Z,68.50
2018-03-06T09:47:54.524Z,69.90
2018-03-06T09:50:21.929Z,70.10
2018-03-06T09:52:49.358Z,66.00
2018-03-06T09:55:16.762Z,70.85
2018-03-06T09:57:44.182Z,70.55
2018-03-06T10:00:11.594Z,67.22
2018-03-06T10:02:39.010Z,69.85
2018-03-06T10:05:06.421Z,62.70
2018-03-06T10:07:33.853Z,74.45
2018-03-06T10:10:01.274Z,66.22
2018-03-06T10:12:28.685Z,71.00
2018-03-06T10:14:56.105Z,67.05
2018-03-06T10:17:23.525Z,68.72
2018-03-06T10:19:50.936Z,72.80
2018-03-06T10:22:18.357Z,57.53
2018-03-06T10:24:45.828Z,68.70
2018-03-06T10:27:13.278Z,70.28
2018-03-06T10:29:40.697Z,66.65
2018-03-06T10:32:08.105Z,65.75
2018-03-06T10:34:35.535Z,67.25
2018-03-06T10:37:02.941Z,63.65
2018-03-06T10:39:30.382Z,60.83
2018-03-06T10:41:57.772Z,57.30
2018-03-06T10:44:25.219Z,65.22
2018-03-06T10:46:52.613Z,60.70
2018-03-06T10:49:20.038Z,61.88
2018-03-06T10:51:47.452Z,61.08
2018-03-06T10:54:14.870Z,58.65
2018-03-06T10:56:42.288Z,54.40
2018-03-06T10:59:09.798Z,60.12
2018-03-06T11:01:37.192Z,54.08
2018-03-06T11:04:04.620Z,59.13
2018-03-06T11:06:33.199Z,55.00
2018-03-06T11:09:00.614Z,58.00
2018-03-06T11:11:28.062Z,57.05
2018-03-06T11:13:55.488Z,59.95
2018-03-06T11:16:22.910Z,58.45
2018-03-06T11:18:50.318Z,59.95
2018-03-06T11:21:17.737Z,55.00
2018-03-06T11:23:45.158Z,58.33
2018-03-06T11:26:12.572Z,58.28
2018-03-06T11:28:39.985Z,55.22
2018-03-06T11:31:07.400Z,55.63
2018-03-06T11:33:34.835Z,55.60
2018-03-06T11:36:02.252Z,55.75
2018-03-06T11:38:29.656Z,52.45
2018-03-06T11:40:57.090Z,60.83
2018-03-06T11:43:24.518Z,56.45
2018-03-06T11:45:51.942Z,52.45
2018-03-06T11:48:19.349Z,52.35
2018-03-06T11:50:46.774Z,50.42
2018-03-06T11:53:14.195Z,47.33
2018-03-06T11:55:41.601Z,49.72
2018-03-06T11:58:09.014Z,50.50
2018-03-06T12:00:36.429Z,54.15
2018-03-06T12:03:03.840Z,51.42
2018-03-06T12:05:31.261Z,53.70
2018-03-06T12:07:58.673Z,53.38
2018-03-06T12:10:26.093Z,52.33
2018-03-06T12:12:53.515Z,51.17
2018-03-06T12:15:20.936Z,55.60
2018-03-06T12:17:48.356Z,51.88
2018-03-06T12:20:15.860Z,46.28
2018-03-06T12:22:43.671Z,54.28
2018-03-06T12:25:11.080Z,52.75
2018-03-06T12:27:38.499Z,43.83
2018-03-06T12:30:05.990Z,48.50
2018-03-06T12:32:33.345Z,55.80
2018-03-06T12:35:00.771Z,50.95
2018-03-06T12:37:28.181Z,50.17
2018-03-06T12:39:55.594Z,49.58
2018-03-06T12:42:23.010Z,52.95
2018-03-06T12:44:50.430Z,54.00
2018-03-06T12:47:17.845Z,50.70
2018-03-06T12:49:45.258Z,49.53
2018-03-06T12:52:12.682Z,52.97
2018-03-06T12:54:40.134Z,53.87
2018-03-06T12:57:07.510Z,51.88
2018-03-06T12:59:34.929Z,50.50
2018-03-06T13:02:02.354Z,48.83
2018-03-06T13:04:30.604Z,45.03
2018-03-06T13:06:58.075Z,44.75
2018-03-06T13:09:25.486Z,42.17
2018-03-06T13:11:52.916Z,42.33
2018-03-06T13:14:21.215Z,42.30
2018-03-06T13:16:48.634Z,36.60
2018-03-06T13:19:16.041Z,35.00
2018-03-06T13:21:43.473Z,33.35
2018-03-06T13:24:11.313Z,31.42
2018-03-06T13:26:38.728Z,33.50
2018-03-06T13:29:06.150Z,34.65
2018-03-06T13:31:33.572Z,34.78
2018-03-06T13:34:01.030Z,37.40
2018-03-06T13:36:28.412Z,37.05
2018-03-06T13:38:55.820Z,32.15
2018-03-06T13:41:23.240Z,35.27
2018-03-06T13:43:50.658Z,35.97
2018-03-06T13:46:18.062Z,35.70
2018-03-06T13:48:45.484Z,40.33
2018-03-06T13:51:12.904Z,33.70
2018-03-06T13:53:40.376Z,37.60
2018-03-06T13:56:07.789Z,40.10
2018-03-06T13:58:35.216Z,39.08
2018-03-06T14:01:02.629Z,40.72
2018-03-06T14:03:30.056Z,38.13
2018-03-06T14:05:57.465Z,35.30
2018-03-06T14:08:24.895Z,40.40
2018-03-06T14:10:52.304Z,35.83
2018-03-06T14:13:19.729Z,39.83
2018-03-06T14:15:47.146Z,39.40
2018-03-06T14:18:14.570Z,32.40
2018-03-06T14:20:41.973Z,37.78
2018-03-06T14:23:09.470Z,39.00
2018-03-06T14:25:37.349Z,34.45
2018-03-06T14:28:04.784Z,35.17
2018-03-06T14:30:32.190Z,34.88
2018-03-06T14:32:59.616Z,30.37
2018-03-06T14:35:27.038Z,32.83
2018-03-06T14:37:54.460Z,31.45
2018-03-06T14:40:21.869Z,36.58
2018-03-06T14:42:49.301Z,30.98
2018-03-06T14:45:16.731Z,30.23
2018-03-06T14:47:44.147Z,33.00
2018-03-06T14:50:11.562Z,29.85
2018-03-06T14:52:38.981Z,28.38
2018-03-06T14:55:06.930Z,30.53
2018-03-06T14:57:34.342Z,33.77
2018-03-06T15:00:01.753Z,30.10
2018-03-06T15:02:29.447Z,25.90
2018-03-06T15:04:56.857Z,26.33
2018-03-06T15:07:24.274Z,30.02
2018-03-06T15:09:51.703Z,29.33
2018-03-06T15:12:19.114Z,29.83
2018-03-06T15:14:46.537Z,30.05
2018-03-06T15:17:13.961Z,31.85
2018-03-06T15:19:41.698Z,31.87
2018-03-06T15:22:09.114Z,32.17
2018-03-06T15:24:36.534Z,29.90
2018-03-06T15:27:03.952Z,29.17
2018-03-06T15:29:31.375Z,31.85
2018-03-06T15:31:58.792Z,28.75
2018-03-06T15:34:26.212Z,30.67
2018-03-06T15:36:53.636Z,30.10
2018-03-06T15:39:21.066Z,29.60
2018-03-06T15:41:48.477Z,27.37
2018-03-06T15:44:15.906Z,25.83
2018-03-06T15:46:43.330Z,25.67
2018-03-06T15:49:10.757Z,27.25
2018-03-06T15:51:38.169Z,29.42
2018-03-06T15:54:05.602Z,29.25
2018-03-06T15:56:33.003Z,31.37
2018-03-06T15:59:00.432Z,32.03
2018-03-06T16:01:27.853Z,29.17
2018-03-06T16:03:55.277Z,31.85
2018-03-06T16:06:22.684Z,30.50
2018-03-06T16:08:50.101Z,28.70
2018-03-06T16:11:17.544Z,29.33
2018-03-06T16:13:44.968Z,28.50
2018-03-06T16:16:12.375Z,32.50
2018-03-06T16:18:39.802Z,30.50
2018-03-06T16:21:07.218Z,28.97
2018-03-06T16:23:34.637Z,32.13
2018-03-06T16:26:02.045Z,25.13
2018-03-06T16:28:29.448Z,33.53
2018-03-06T16:30:56.873Z,28.85
2018-03-06T16:33:24.287Z,31.80
2018-03-06T16:35:51.712Z,28.42
2018-03-06T16:38:19.128Z,24.17
2018-03-06T16:40:46.555Z,26.33
2018-03-06T16:43:13.961Z,31.55
2018-03-06T16:45:41.386Z,29.83
2018-03-06T16:48:08.803Z,23.92
2018-03-06T16:50:36.228Z,22.65
2018-03-06T16:53:03.638Z,23.52
2018-03-06T16:55:31.066Z,21.10
2018-03-06T16:57:58.470Z,22.08
2018-03-06T17:00:25.889Z,22.60
2018-03-06T17:02:53.293Z,19.85
2018-03-06T17:05:20.709Z,23.02
2018-03-06T17:07:48.128Z,21.10
2018-03-06T17:10:15.546Z,20.33
2018-03-06T17:12:42.952Z,19.23
2018-03-06T17:15:10.365Z,21.60
2018-03-06T17:17:37.780Z,23.62
2018-03-06T17:20:05.196Z,20.52
2018-03-06T17:22:32.607Z,22.90
2018-03-06T17:25:00.026Z,22.75
2018-03-06T17:27:27.434Z,22.23
2018-03-06T17:29:54.834Z,23.70
2018-03-06T17:32:22.253Z,23.48
2018-03-06T17:34:49.664Z,27.75
2018-03-06T17:37:17.092Z,26.85
2018-03-06T17:39:44.501Z,27.52
2018-03-06T17:42:11.908Z,21.90
2018-03-06T17:44:39.318Z,26.25
2018-03-06T17:47:06.736Z,26.48
2018-03-06T17:49:34.141Z,25.02
2018-03-06T17:52:01.557Z,27.42
2018-03-06T17:54:28.961Z,26.60
2018-03-06T17:56:57.085Z,25.50
2018-03-06T17:59:24.497Z,28.10
2018-03-06T18:01:51.922Z,25.35
2018-03-06T18:04:19.320Z,25.92
2018-03-06T18:06:46.783Z,27.20
2018-03-06T18:09:14.192Z,25.17
2018-03-06T18:11:41.607Z,23.52
2018-03-06T18:14:09.014Z,28.45
2018-03-06T18:16:36.431Z,26.67
2018-03-06T18:19:03.835Z,29.65
2018-03-06T18:21:31.254Z,32.05
2018-03-06T18:23:58.656Z,32.17
2018-03-06T18:26:26.073Z,32.10
2018-03-06T18:28:53.480Z,29.75
2018-03-06T18:31:20.896Z,31.40
2018-03-06T18:33:48.300Z,32.80
2018-03-06T18:36:15.725Z,34.95
2018-03-06T18:38:43.138Z,32.47
2018-03-06T18:41:10.542Z,30.88
2018-03-06T18:43:37.954Z,32.15
2018-03-06T18:46:05.354Z,32.70
2018-03-06T18:48:32.782Z,32.45
2018-03-06T18:51:11.885Z,29.17
2018-03-06T18:53:39.288Z,30.85
2018-03-06T18:56:06.693Z,26.48
2018-03-06T18:58:34.813Z,32.17
2018-03-06T19:01:14.133Z,30.05
2018-03-06T19:03:53.282Z,34.20
2018-03-06T19:09:23.661Z,30.75
2018-03-06T19:11:51.085Z,32.80
2018-03-06T19:14:18.486Z,33.10
2018-03-06T19:16:45.896Z,31.65
2018-03-06T19:19:13.313Z,31.85
2018-03-06T19:21:40.716Z,36.85
2018-03-06T19:24:08.138Z,38.28
2018-03-06T19:26:35.649Z,37.50
2018-03-06T19:29:03.079Z,33.53
2018-03-06T19:31:30.485Z,33.75
2018-03-06T19:33:57.901Z,32.97
2018-03-06T19:36:25.322Z,32.03
2018-03-06T19:38:52.741Z,35.10
2018-03-06T19:41:20.158Z,36.25
2018-03-06T19:43:47.566Z,37.75
2018-03-06T19:46:14.966Z,35.58
2018-03-06T19:48:42.384Z,31.25
2018-03-06T19:51:09.795Z,36.97
2018-03-06T19:53:37.200Z,35.63
2018-03-06T19:56:04.617Z,35.30
2018-03-06T19:58:32.033Z,33.13
2018-03-06T20:00:59.440Z,33.70
2018-03-06T20:03:26.855Z,27.55
2018-03-06T20:05:54.257Z,29.02
2018-03-06T20:08:21.689Z,27.95
2018-03-06T20:10:49.100Z,27.87
2018-03-06T20:13:16.518Z,27.55
2018-03-06T20:15:44.567Z,23.48
2018-03-06T20:18:12.005Z,18.33
2018-03-06T20:20:39.459Z,21.62
2018-03-06T20:23:06.881Z,22.00
2018-03-06T20:25:39.938Z,20.67
2018-03-06T20:28:07.353Z,19.70
2018-03-06T20:30:40.506Z,19.33
2018-03-06T20:33:17.381Z,17.17
2018-03-06T20:35:44.788Z,20.60
2018-03-06T20:38:17.832Z,18.20
2018-03-06T20:40:45.242Z,20.05
2018-03-06T20:43:12.650Z,20.48
2018-03-06T20:45:45.702Z,19.45
2018-03-06T20:48:13.109Z,18.02
2018-03-06T20:50:40.533Z,18.35
2018-03-06T20:53:13.521Z,20.42
2018-03-06T20:55:40.939Z,17.48
2018-03-06T20:58:08.341Z,17.95
2018-03-06T21:00:35.761Z,18.65
2018-03-06T21:03:03.165Z,18.95
2018-03-06T21:05:30.594Z,18.90
2018-03-06T21:07:57.997Z,19.60
2018-03-06T21:10:25.720Z,18.55
2018-03-06T21:12:53.116Z,18.20
2018-03-06T21:15:20.533Z,21.50
2018-03-06T21:17:47.936Z,19.83
2018-03-06T21:20:15.349Z,18.50
2018-03-06T21:22:42.753Z,18.58
2018-03-06T21:25:10.167Z,17.70
2018-03-06T21:27:37.641Z,17.87
2018-03-06T21:30:05.058Z,19.87
2018-03-06T21:32:32.462Z,17.50
2018-03-06T21:34:59.892Z,14.90
2018-03-06T21:37:27.282Z,16.45
2018-03-06T21:39:54.693Z,16.58
2018-03-06T21:42:22.095Z,15.60
2018-03-06T21:44:49.502Z,20.80
2018-03-06T21:47:16.910Z,16.23
2018-03-06T21:49:44.326Z,16.70
2018-03-06T21:52:11.722Z,17.15
2018-03-06T21:54:39.137Z,19.60
2018-03-06T21:57:06.558Z,16.20
2018-03-06T22:02:40.504Z,17.83
2018-03-06T22:05:07.933Z,17.90
2018-03-06T22:07:35.433Z,17.80
2018-03-06T22:10:02.888Z,15.95
2018-03-06T22:12:30.302Z,13.32
2018-03-06T22:14:57.817Z,13.02
2018-03-06T22:17:25.266Z,15.77
2018-03-06T22:19:52.685Z,15.10
2018-03-06T22:22:20.133Z,15.00
2018-03-06T22:24:47.604Z,15.32
2018-03-06T22:27:15.055Z,12.55
2018-03-06T22:29:42.555Z,13.43
2018-03-06T22:32:09.992Z,15.55
2018-03-06T22:34:37.500Z,13.50
2018-03-06T22:37:04.927Z,14.07
2018-03-06T22:39:32.343Z,13.65
2018-03-06T22:41:59.826Z,13.25
2018-03-06T22:44:27.247Z,11.95
2018-03-06T22:46:54.674Z,13.68
2018-03-06T22:49:22.178Z,13.38
2018-03-06T22:51:49.606Z,11.70
2018-03-06T22:54:17.024Z,14.30
2018-03-06T22:56:44.446Z,13.40
2018-03-06T22:59:11.903Z,15.35
2018-03-06T23:01:39.430Z,13.93
2018-03-06T23:04:06.858Z,14.65
2018-03-06T23:06:34.287Z,14.75
2018-03-06T23:09:01.751Z,13.40
2018-03-06T23:11:29.177Z,14.35
2018-03-06T23:13:56.594Z,13.30
2018-03-06T23:16:24.045Z,12.60
2018-03-06T23:18:52.146Z,12.88
2018-03-06T23:21:19.572Z,13.00
2018-03-06T23:23:46.986Z,11.45
2018-03-06T23:26:14.410Z,12.27
2018-03-06T23:28:41.901Z,10.52
2018-03-06T23:31:09.342Z,10.75
2018-03-06T23:33:37.182Z,10.60
2018-03-06T23:36:04.930Z,10.00
2018-03-06T23:38:32.944Z,9.45
2018-03-06T23:41:00.390Z,9.02
2018-03-06T23:43:27.807Z,9.02
2018-03-06T23:45:55.219Z,10.07
2018-03-06T23:48:22.634Z,11.20
2018-03-06T23:50:50.039Z,10.23
2018-03-06T23:53:17.462Z,10.60
2018-03-06T23:55:44.981Z,12.02
2018-03-06T23:58:12.397Z,13.60
